Time;durP1;ratioP1;P1;durP2;ratioP2;P2;SDS_P1;SDS_P2;PMS_P1;PMS_P2;Temp;Humidity;BMP_temperature;BMP_pressure;BME280_temperature;BME280_humidity;BME280_pressure;Samples;Min_cycle;Max_cycle;Signal;HPM_P1;HPM_P2
2022/12/21 00:02:01;;;;;;;21.42;8.90;;;8.40;99.90;;;;;;5074841;28;20023;-77
2022/12/21 00:04:29;;;;;;;23.38;9.30;;;8.30;99.90;;;;;;5074743;28;20052;-77
2022/12/21 00:06:56;;;;;;;22.02;8.20;;;8.30;99.90;;;;;;5075889;28;20024;-77
2022/12/21 00:09:22;;;;;;;20.50;8.10;;;;;;;;;;5074341;28;20017;-77
2022/12/21 00:11:48;;;;;;;29.52;10.13;;;8.30;99.90;;;;;;5074595;28;20391;-77
2022/12/21 00:14:14;;;;;;;22.27;9.27;;;8.20;99.90;;;;;;5074708;28;20088;-78
2022/12/21 00:16:41;;;;;;;21.65;8.55;;;8.20;99.90;;;;;;5074596;28;20017;-77
2022/12/21 00:19:07;;;;;;;23.25;10.13;;;8.10;99.90;;;;;;5074267;28;20112;-77
2022/12/21 00:21:36;;;;;;;25.02;9.40;;;8.10;99.90;;;;;;5074400;28;20067;-77
2022/12/21 00:24:05;;;;;;;27.88;9.95;;;8.10;99.90;;;;;;5074214;28;20032;-78
2022/12/21 00:26:34;;;;;;;25.27;9.13;;;8.10;99.90;;;;;;5074119;28;20037;-77
2022/12/21 00:29:00;;;;;;;25.80;9.18;;;8.00;99.90;;;;;;5074312;28;20020;-77
2022/12/21 00:31:28;;;;;;;31.33;9.48;;;8.00;99.90;;;;;;5075472;28;20032;-77
2022/12/21 00:33:57;;;;;;;27.77;9.48;;;7.90;99.90;;;;;;5074047;28;20031;-78
2022/12/21 00:36:36;;;;;;;18.80;7.90;;;7.90;99.90;;;;;;5075208;28;20032;-77
2022/12/21 00:39:02;;;;;;;24.83;9.27;;;7.80;99.90;;;;;;5074375;28;20106;-77
2022/12/21 00:41:29;;;;;;;23.98;8.40;;;;;;;;;;5073894;28;20074;-77
2022/12/21 00:43:55;;;;;;;23.67;9.30;;;;;;;;;;5074026;28;20442;-77
2022/12/21 00:46:30;;;;;;;24.90;9.25;;;7.70;99.90;;;;;;5073887;28;20024;-78
2022/12/21 00:48:57;;;;;;;22.98;8.50;;;7.80;99.90;;;;;;5075247;28;20033;-77
2022/12/21 00:51:24;;;;;;;22.17;8.43;;;7.70;99.90;;;;;;5073921;28;20029;-78
2022/12/21 00:53:51;;;;;;;23.33;8.85;;;7.70;99.90;;;;;;5073822;28;20158;-77
2022/12/21 00:56:20;;;;;;;26.95;8.63;;;7.70;99.90;;;;;;5074908;28;20017;-77
2022/12/21 00:58:47;;;;;;;25.60;9.38;;;7.70;99.90;;;;;;5075092;28;20037;-77
2022/12/21 01:01:35;;;;;;;19.77;7.78;;;8.50;99.90;;;;;;5073632;28;20048;-77
2022/12/21 01:04:02;;;;;;;21.33;8.10;;;7.60;99.90;;;;;;5075572;28;20028;-78
2022/12/21 01:06:36;;;;;;;24.25;8.00;;;7.70;99.90;;;;;;5073641;28;20021;-77
2022/12/21 01:09:04;;;;;;;21.73;8.25;;;7.60;99.90;;;;;;5073953;28;20028;-77
2022/12/21 01:11:29;;;;;;;21.08;8.00;;;7.60;99.90;;;;;;5073535;28;20013;-77
2022/12/21 01:13:56;;;;;;;23.90;8.32;;;7.50;99.90;;;;;;5073247;28;20412;-77
2022/12/21 01:16:28;;;;;;;19.40;7.32;;;7.50;99.90;;;;;;5073833;28;20441;-78
2022/12/21 01:18:54;;;;;;;26.92;8.60;;;7.40;99.90;;;;;;5073350;28;20025;-77
2022/12/21 01:21:29;;;;;;;18.58;6.90;;;7.40;99.90;;;;;;5073347;28;20025;-78
2022/12/21 01:23:55;;;;;;;19.98;7.13;;;7.40;99.90;;;;;;5074587;28;20093;-77
2022/12/21 01:26:24;;;;;;;20.00;7.25;;;;;;;;;;5074509;28;20373;-78
2022/12/21 01:28:50;;;;;;;19.27;6.93;;;7.40;99.90;;;;;;5074226;28;20025;-77
2022/12/21 01:31:16;;;;;;;18.77;6.53;;;7.40;99.90;;;;;;5074316;28;20074;-77
2022/12/21 01:33:41;;;;;;;21.33;6.93;;;7.40;99.90;;;;;;5073081;28;20031;-77
2022/12/21 01:36:13;;;;;;;16.70;5.75;;;7.50;99.90;;;;;;5072860;28;20036;-77
2022/12/21 01:38:41;;;;;;;17.10;5.22;;;7.50;99.90;;;;;;5072642;28;20123;-77
2022/12/21 01:41:11;;;;;;;15.68;5.30;;;7.50;99.90;;;;;;5072798;28;20027;-77
2022/12/21 01:43:45;;;;;;;16.70;6.05;;;7.50;99.90;;;;;;5072979;28;20025;-77
2022/12/21 01:46:22;;;;;;;19.50;5.45;;;4.80;99.90;;;;;;5074073;28;20024;-77
2022/12/21 01:49:12;;;;;;;29.55;6.20;;;7.50;99.90;;;;;;5071804;28;20402;-77
2022/12/21 01:51:39;;;;;;;16.77;5.65;;;7.50;99.90;;;;;;5073929;28;20483;-77
2022/12/21 01:54:15;;;;;;;18.45;5.88;;;7.60;99.90;;;;;;5073791;28;20483;-77
2022/12/21 01:56:45;;;;;;;20.23;5.55;;;7.60;99.90;;;;;;5074405;28;20028;-77
2022/12/21 01:59:24;;;;;;;19.80;5.78;;;7.60;99.90;;;;;;5072451;28;20073;-77
2022/12/21 02:01:51;;;;;;;20.27;6.32;;;7.60;99.90;;;;;;5072740;28;20395;-77
2022/12/21 02:04:20;;;;;;;27.25;7.18;;;7.60;99.90;;;;;;5072520;28;20390;-77
2022/12/21 02:06:49;;;;;;;18.15;6.28;;;;;;;;;;5073971;28;20066;-77
2022/12/21 02:09:15;;;;;;;;;;;7.60;99.90;;;;;;5072758;28;20058;-78
2022/12/21 02:11:41;;;;;;;23.30;6.80;;;7.60;99.90;;;;;;5072596;28;19904;-78
2022/12/21 02:14:14;;;;;;;19.88;6.15;;;7.60;99.90;;;;;;5073733;28;20036;-77
2022/12/21 02:17:05;;;;;;;23.15;7.18;;;7.70;99.90;;;;;;5074356;28;20013;-77
2022/12/21 02:19:55;;;;;;;18.83;5.97;;;7.60;99.90;;;;;;5072155;28;20029;-77
2022/12/21 02:22:53;;;;;;;15.32;5.65;;;7.70;99.90;;;;;;5074215;28;20032;-78
2022/12/21 02:25:22;;;;;;;18.42;6.95;;;7.70;99.90;;;;;;5072153;28;20086;-77
2022/12/21 02:28:02;;;;;;;16.42;6.43;;;7.60;99.90;;;;;;5072134;28;20061;-77
2022/12/21 02:30:55;;;;;;;19.73;5.90;;;7.70;99.90;;;;;;5073355;28;20039;-77
2022/12/21 02:33:45;;;;;;;12.18;5.47;;;7.70;99.90;;;;;;5061405;28;20033;-77
2022/12/21 02:36:11;;;;;;;15.27;5.20;;;7.60;99.90;;;;;;5071983;28;20115;-78
2022/12/21 02:38:51;;;;;;;16.33;5.05;;;7.70;99.90;;;;;;5073129;28;20067;-78
2022/12/21 02:41:32;;;;;;;15.52;4.47;;;7.70;99.90;;;;;;5073336;28;20032;-77
2022/12/21 02:44:30;;;;;;;14.50;5.32;;;7.60;99.90;;;;;;5072029;28;20079;-77
2022/12/21 02:47:08;;;;;;;18.30;5.60;;;7.60;99.90;;;;;;5072009;28;20091;-77
2022/12/21 02:49:45;;;;;;;16.42;4.72;;;7.60;99.90;;;;;;5072046;28;20082;-78
2022/12/21 02:52:21;;;;;;;17.55;5.47;;;7.60;99.90;;;;;;5071875;28;20025;-77
2022/12/21 02:54:47;;;;;;;19.70;5.95;;;7.60;99.90;;;;;;5071983;28;20017;-77
2022/12/21 02:57:15;;;;;;;15.05;5.53;;;7.60;99.90;;;;;;5073696;28;20368;-77
2022/12/21 02:59:47;;;;;;;14.15;5.47;;;7.60;99.90;;;;;;5073026;28;20032;-77
2022/12/21 03:02:28;;;;;;;25.13;6.65;;;7.60;99.90;;;;;;5076223;28;20032;-77
2022/12/21 03:05:32;;;;;;;21.13;7.30;;;7.50;99.90;;;;;;5077400;28;20029;-77
2022/12/21 03:08:12;;;;;;;16.67;6.28;;;7.60;99.90;;;;;;5077346;28;20024;-78
2022/12/21 03:10:58;;;;;;;17.58;6.35;;;7.60;99.90;;;;;;5075730;28;20047;-77
2022/12/21 03:13:43;;;;;;;20.83;6.45;;;7.60;99.90;;;;;;5075736;28;20028;-77
2022/12/21 03:16:36;;;;;;;19.02;6.30;;;7.60;99.90;;;;;;5076913;28;20021;-77
2022/12/21 03:19:31;;;;;;;22.73;7.20;;;7.50;99.90;;;;;;5076981;28;20021;-78
2022/12/21 03:22:01;;;;;;;20.58;7.05;;;7.20;99.90;;;;;;5076791;28;20368;-77
2022/12/21 03:24:36;;;;;;;22.35;6.35;;;7.50;99.90;;;;;;5076701;28;20024;-77
2022/12/21 03:27:12;;;;;;;25.58;6.22;;;7.50;99.90;;;;;;5075338;28;20115;-77
2022/12/21 03:29:52;;;;;;;19.92;6.22;;;7.50;99.90;;;;;;5075181;28;20031;-77
2022/12/21 03:32:27;;;;;;;25.40;8.23;;;11.10;99.90;;;;;;5076693;28;20020;-77
2022/12/21 03:34:54;;;;;;;17.88;6.13;;;7.50;99.90;;;;;;5075290;28;20174;-78
2022/12/21 03:37:28;;;;;;;18.20;7.40;;;9.20;99.90;;;;;;5076615;28;20029;-77
2022/12/21 03:39:59;;;;;;;23.52;8.75;;;7.50;99.90;;;;;;5076348;28;20055;-78
2022/12/21 03:42:33;;;;;;;23.88;8.50;;;7.40;99.90;;;;;;5076448;28;20028;-77
2022/12/21 03:45:08;;;;;;;20.35;8.23;;;7.50;99.90;;;;;;5076451;28;20016;-77
2022/12/21 03:47:57;;;;;;;18.80;7.55;;;7.50;99.90;;;;;;5074996;28;20021;-77
2022/12/21 03:50:27;;;;;;;18.48;7.45;;;7.40;99.90;;;;;;5076307;28;20028;-78
2022/12/21 03:53:02;;;;;;;22.40;7.95;;;7.50;99.90;;;;;;5074975;28;20086;-78
2022/12/21 03:55:32;;;;;;;27.92;8.25;;;7.40;99.90;;;;;;5076270;28;20028;-78
2022/12/21 03:57:58;;;;;;;19.58;7.57;;;7.40;99.90;;;;;;5076128;28;20487;-78
2022/12/21 04:00:31;;;;;;;24.00;9.55;;;7.40;99.90;;;;;;5074702;28;20029;-77
2022/12/21 04:03:15;;;;;;;19.42;8.18;;;7.40;99.90;;;;;;5074710;28;20028;-77
2022/12/21 04:05:55;;;;;;;22.35;9.10;;;7.40;99.90;;;;;;5074841;28;20035;-77
2022/12/21 04:08:25;;;;;;;22.60;8.57;;;7.40;99.90;;;;;;5075827;28;20460;-77
2022/12/21 04:10:52;;;;;;;27.90;9.45;;;7.40;99.90;;;;;;5076377;28;20017;-77
2022/12/21 04:13:17;;;;;;;25.88;8.32;;;7.50;99.90;;;;;;5075042;28;20099;-77
2022/12/21 04:21:11;;;;;;;21.17;8.18;;;7.50;99.90;;;;;;5076047;28;20039;-77
2022/12/21 04:29:10;;;;;;;23.52;8.43;;;7.50;99.90;;;;;;5075769;28;20404;-78
2022/12/21 04:31:35;;;;;;;28.35;10.45;;;7.50;99.90;;;;;;5075367;28;20028;-77
2022/12/21 04:34:02;;;;;;;26.50;9.25;;;;;;;;;;5075493;28;20027;-78
2022/12/21 04:39:19;;;;;;;24.67;9.43;;;7.60;99.90;;;;;;5075686;28;20094;-77
2022/12/21 04:41:44;;;;;;;31.23;10.73;;;7.60;99.90;;;;;;5075520;28;20033;-77
2022/12/21 04:44:10;;;;;;;33.20;11.00;;;7.60;99.90;;;;;;5075093;28;20090;-77
2022/12/21 04:46:38;;;;;;;29.75;10.63;;;7.60;99.90;;;;;;5073923;28;20122;-78
2022/12/21 04:49:04;;;;;;;35.78;11.35;;;7.60;99.90;;;;;;5073773;28;20517;-77
2022/12/21 04:51:30;;;;;;;36.20;11.80;;;7.60;99.90;;;;;;5074149;28;20024;-77
2022/12/21 04:53:56;;;;;;;50.97;11.77;;;7.60;99.90;;;;;;5073963;28;20029;-77
2022/12/21 04:56:21;;;;;;;35.63;12.18;;;7.60;99.90;;;;;;5074131;28;20020;-77
2022/12/21 04:58:49;;;;;;;58.88;12.30;;;7.60;99.90;;;;;;5074828;28;20027;-78
2022/12/21 05:01:20;;;;;;;46.73;9.73;;;7.60;99.90;;;;;;5073539;28;20031;-77
2022/12/21 05:03:47;;;;;;;37.05;10.43;;;7.60;99.90;;;;;;5075153;28;20266;-77
2022/12/21 05:06:14;;;;;;;40.17;9.02;;;7.70;99.90;;;;;;5074821;28;20038;-77
2022/12/21 05:08:41;;;;;;;43.17;10.65;;;;;;;;;;5073377;28;20514;-77
2022/12/21 05:11:19;;;;;;;42.60;10.50;;;7.60;99.90;;;;;;5073258;28;20169;-78
2022/12/21 05:13:47;;;;;;;45.22;8.77;;;7.60;99.90;;;;;;5074847;28;20021;-81
2022/12/21 05:16:16;;;;;;;67.72;9.95;;;7.60;99.90;;;;;;5075719;28;20043;-81
2022/12/21 05:18:43;;;;;;;90.03;11.25;;;7.60;99.90;;;;;;5075261;28;20028;-79
2022/12/21 05:21:12;;;;;;;48.33;9.68;;;7.60;99.90;;;;;;5077507;28;20036;-80
2022/12/21 05:23:38;;;;;;;60.63;10.57;;;7.60;99.90;;;;;;5075550;28;20028;-81
2022/12/21 05:26:07;;;;;;;38.08;10.38;;;7.60;99.90;;;;;;5075788;28;20028;-80
2022/12/21 05:28:33;;;;;;;63.22;10.25;;;7.60;99.90;;;;;;5075973;28;20024;-80
2022/12/21 05:31:06;;;;;;;72.78;10.98;;;7.60;99.90;;;;;;5075336;28;20021;-80
2022/12/21 05:33:34;;;;;;;74.05;11.38;;;7.60;99.90;;;;;;5075978;28;20020;-80
2022/12/21 05:36:04;;;;;;;61.65;10.68;;;7.60;99.90;;;;;;5053632;23;20071;-79
2022/12/21 05:38:29;;;;;;;55.30;11.23;;;7.60;99.90;;;;;;5038767;28;20025;-79
2022/12/21 05:40:58;;;;;;;47.88;12.25;;;7.60;99.90;;;;;;5054745;28;20025;-79
2022/12/21 05:43:24;;;;;;;;;;;7.60;99.90;;;;;;5056432;28;20025;-79
2022/12/21 05:45:49;;;;;;;54.22;11.85;;;7.80;99.90;;;;;;5055060;28;19911;-79
2022/12/21 05:48:16;;;;;;;63.38;11.43;;;7.60;99.90;;;;;;5056426;28;20029;-79
2022/12/21 05:50:41;;;;;;;69.30;13.13;;;7.60;99.90;;;;;;5054997;28;20117;-78
2022/12/21 05:53:10;;;;;;;75.55;13.77;;;7.60;99.90;;;;;;5052892;28;20451;-79
2022/12/21 05:55:35;;;;;;;60.42;12.63;;;8.20;99.90;;;;;;5052865;28;20102;-79
2022/12/21 05:58:01;;;;;;;68.65;14.77;;;7.60;99.90;;;;;;5052719;28;20452;-79
2022/12/21 06:00:28;;;;;;;78.78;12.95;;;;;;;;;;5054029;28;20549;-78
2022/12/21 06:02:53;;;;;;;64.63;14.68;;;7.60;99.90;;;;;;5052774;28;20025;-78
2022/12/21 06:05:19;;;;;;;46.38;14.25;;;7.60;99.90;;;;;;5053784;28;20074;-78
2022/12/21 06:07:45;;;;;;;62.25;13.75;;;;;;;;;;5053770;28;20028;-78
2022/12/21 06:10:13;;;;;;;85.05;14.88;;;7.70;99.90;;;;;;5053623;28;20486;-78
2022/12/21 06:12:39;;;;;;;69.78;15.35;;;7.70;99.90;;;;;;5053960;28;20028;-79
2022/12/21 06:15:05;;;;;;;77.45;14.55;;;7.70;99.90;;;;;;5054162;28;20017;-78
2022/12/21 06:17:31;;;;;;;70.18;14.68;;;7.70;99.90;;;;;;5053172;28;20074;-79
2022/12/21 06:19:57;;;;;;;45.78;14.38;;;;;;;;;;5054274;28;20021;-79
2022/12/21 06:22:22;;;;;;;63.08;17.75;;;7.70;99.90;;;;;;5056324;28;20032;-80
2022/12/21 06:24:48;;;;;;;63.22;16.73;;;;;;;;;;5055727;28;20021;-80
2022/12/21 06:27:14;;;;;;;59.72;15.75;;;;;;;;;;5053655;28;20491;-80
2022/12/21 06:29:43;;;;;;;56.22;16.63;;;7.70;99.90;;;;;;5053607;28;20547;-81
2022/12/21 06:32:08;;;;;;;70.65;16.70;;;7.80;99.90;;;;;;5054618;28;20028;-80
2022/12/21 06:34:34;;;;;;;51.08;16.75;;;7.80;99.90;;;;;;5054418;28;20018;-81
2022/12/21 06:37:03;;;;;;;54.20;17.73;;;7.80;99.90;;;;;;5054542;28;20029;-80
2022/12/21 06:39:32;;;;;;;67.57;18.35;;;7.80;99.90;;;;;;5054609;28;20434;-81
2022/12/21 06:41:57;;;;;;;53.58;17.77;;;7.80;99.90;;;;;;5053493;28;20021;-80
2022/12/21 06:44:23;;;;;;;54.63;17.25;;;7.70;99.90;;;;;;5055343;28;20021;-80
2022/12/21 06:46:48;;;;;;;61.35;17.33;;;10.90;99.90;;;;;;5056057;28;20017;-81
2022/12/21 06:49:14;;;;;;;56.70;17.00;;;7.80;99.90;;;;;;5054130;28;20031;-78
2022/12/21 06:51:40;;;;;;;54.30;19.67;;;9.50;99.90;;;;;;5052345;28;20020;-78
2022/12/21 06:54:06;;;;;;;52.17;17.20;;;7.80;99.90;;;;;;5052141;28;20025;-78
2022/12/21 06:56:32;;;;;;;62.15;17.95;;;7.80;99.90;;;;;;5052248;28;20018;-77
2022/12/21 06:58:58;;;;;;;53.17;17.58;;;7.80;99.90;;;;;;5052374;28;20027;-76
2022/12/21 07:01:26;;;;;;;51.00;16.95;;;7.80;99.90;;;;;;5051993;28;20017;-77
2022/12/21 07:03:52;;;;;;;53.70;17.73;;;7.70;99.90;;;;;;5053380;28;20494;-77
2022/12/21 07:06:20;;;;;;;56.75;18.23;;;7.70;99.90;;;;;;5053569;28;20028;-78
2022/12/21 07:08:47;;;;;;;53.03;17.75;;;7.80;99.90;;;;;;5052133;28;20496;-77
2022/12/21 07:11:14;;;;;;;58.70;17.25;;;7.80;99.90;;;;;;5053819;28;20017;-77
2022/12/21 07:13:42;;;;;;;56.42;17.73;;;7.80;99.90;;;;;;5053326;28;20025;-77
2022/12/21 07:16:09;;;;;;;53.05;19.58;;;7.80;99.90;;;;;;5051758;28;20017;-77
2022/12/21 07:18:35;;;;;;;54.17;18.25;;;7.80;99.90;;;;;;5051428;28;20025;-77
2022/12/21 07:21:02;;;;;;;54.97;18.17;;;7.80;99.90;;;;;;5052898;28;20029;-77
2022/12/21 07:23:34;;;;;;;47.83;16.90;;;7.80;99.90;;;;;;5051854;28;20394;-77
2022/12/21 07:26:29;;;;;;;41.85;16.13;;;7.80;99.90;;;;;;5053674;28;20024;-78
2022/12/21 07:28:55;;;;;;;57.55;18.73;;;7.90;99.90;;;;;;5035218;28;20032;-77
2022/12/21 07:31:23;;;;;;;46.35;16.95;;;7.90;99.90;;;;;;5053085;28;20029;-77
2022/12/21 07:33:49;;;;;;;46.97;17.17;;;7.90;99.90;;;;;;5051922;28;20021;-77
2022/12/21 07:36:15;;;;;;;50.05;18.13;;;8.10;99.90;;;;;;5052872;28;20032;-77
2022/12/21 07:38:41;;;;;;;44.55;16.77;;;7.90;99.90;;;;;;5051772;28;20475;-77
2022/12/21 07:41:09;;;;;;;39.80;17.73;;;7.90;99.90;;;;;;5052913;28;20033;-77
2022/12/21 07:43:36;;;;;;;41.28;16.38;;;7.80;99.90;;;;;;5051758;28;20059;-77
2022/12/21 07:46:02;;;;;;;39.53;18.42;;;7.80;99.90;;;;;;5051830;28;20021;-77
2022/12/21 07:48:29;;;;;;;45.10;17.73;;;7.80;99.90;;;;;;5054132;28;20029;-77
2022/12/21 07:50:57;;;;;;;51.35;18.50;;;7.80;99.90;;;;;;5056581;28;20037;-77
2022/12/21 07:53:23;;;;;;;43.43;19.23;;;9.00;99.90;;;;;;5056279;28;20073;-77
2022/12/21 07:55:48;;;;;;;49.78;18.40;;;7.90;99.90;;;;;;5056321;28;20526;-78
2022/12/21 07:58:14;;;;;;;46.75;17.90;;;7.80;99.90;;;;;;5055131;28;20070;-77
2022/12/21 08:00:40;;;;;;;40.08;18.08;;;7.80;99.90;;;;;;5056885;28;20032;-77
2022/12/21 08:03:06;;;;;;;44.42;17.95;;;7.80;99.90;;;;;;5055012;28;20487;-78
2022/12/21 08:05:31;;;;;;;44.78;18.95;;;7.70;99.90;;;;;;5056105;28;20032;-77
2022/12/21 08:07:58;;;;;;;43.53;17.30;;;7.70;99.90;;;;;;5056374;28;20056;-77
2022/12/21 08:10:24;;;;;;;41.97;17.98;;;7.70;99.90;;;;;;5054791;28;20025;-77
2022/12/21 08:12:49;;;;;;;37.25;16.02;;;7.70;99.90;;;;;;5054749;28;20094;-77
2022/12/21 08:15:15;;;;;;;44.17;17.67;;;7.70;99.90;;;;;;5054590;28;20044;-77
2022/12/21 08:17:41;;;;;;;46.90;15.85;;;7.70;99.90;;;;;;5054645;28;20017;-77
2022/12/21 08:20:07;;;;;;;40.65;15.20;;;7.70;99.90;;;;;;5055735;28;20568;-77
2022/12/21 08:22:32;;;;;;;39.88;15.55;;;7.70;99.90;;;;;;5056249;28;20022;-77
2022/12/21 08:24:58;;;;;;;40.70;15.38;;;7.60;99.90;;;;;;5055951;28;20500;-77
2022/12/21 08:27:24;;;;;;;41.67;15.88;;;8.50;99.90;;;;;;5054280;28;20056;-77
2022/12/21 08:29:49;;;;;;;40.45;14.68;;;7.60;99.90;;;;;;5055510;28;20033;-77
2022/12/21 08:32:15;;;;;;;50.20;16.00;;;7.60;99.90;;;;;;5055652;28;20033;-77
2022/12/21 08:34:40;;;;;;;39.65;15.45;;;8.90;99.90;;;;;;5054090;28;20120;-77
2022/12/21 08:37:06;;;;;;;31.88;13.75;;;7.60;99.90;;;;;;5054861;28;20395;-77
2022/12/21 08:39:31;;;;;;;38.42;13.90;;;7.60;99.90;;;;;;5054268;28;20116;-77
2022/12/21 08:41:57;;;;;;;40.45;15.48;;;7.60;99.90;;;;;;5054120;28;20056;-78
2022/12/21 08:44:23;;;;;;;39.17;15.70;;;7.60;99.90;;;;;;5056103;28;20100;-77
2022/12/21 08:46:48;;;;;;;36.85;14.38;;;7.50;99.90;;;;;;5055314;28;20036;-77
2022/12/21 08:49:14;;;;;;;36.28;14.30;;;7.60;99.90;;;;;;5055062;28;20165;-78
2022/12/21 08:51:39;;;;;;;37.25;14.32;;;7.60;99.90;;;;;;5054053;28;20460;-77
2022/12/21 08:54:06;;;;;;;38.50;15.35;;;7.60;99.90;;;;;;5055405;28;20025;-77
2022/12/21 08:56:33;;;;;;;32.47;13.27;;;7.60;99.90;;;;;;5055165;28;20565;-77
2022/12/21 08:59:06;;;;;;;36.40;13.95;;;7.60;99.90;;;;;;5054581;28;20384;-77
2022/12/21 09:01:32;;;;;;;29.35;14.27;;;7.60;99.90;;;;;;5053939;28;20036;-77
2022/12/21 09:03:58;;;;;;;35.97;14.23;;;7.60;99.90;;;;;;5054975;28;20025;-77
2022/12/21 09:06:24;;;;;;;32.58;13.48;;;7.60;99.90;;;;;;5054924;28;20096;-77
2022/12/21 09:08:50;;;;;;;33.50;12.40;;;8.80;99.90;;;;;;5054746;28;20074;-78
2022/12/21 09:11:17;;;;;;;30.33;12.23;;;7.70;99.90;;;;;;5053708;28;20029;-77
2022/12/21 09:13:43;;;;;;;32.30;12.98;;;7.60;99.90;;;;;;5055080;28;20027;-77
2022/12/21 09:16:21;;;;;;;29.75;12.88;;;7.60;99.90;;;;;;5055037;28;20479;-77
2022/12/21 09:18:48;;;;;;;38.78;12.52;;;7.60;99.90;;;;;;5055499;28;20407;-77
2022/12/21 09:21:15;;;;;;;25.27;11.07;;;7.50;99.90;;;;;;5053547;28;20021;-77
2022/12/21 09:23:41;;;;;;;26.08;10.23;;;7.50;99.90;;;;;;5054847;28;20441;-78
2022/12/21 09:26:08;;;;;;;30.27;10.63;;;7.60;99.90;;;;;;5055036;28;20035;-77
2022/12/21 09:28:34;;;;;;;28.50;11.70;;;7.60;99.90;;;;;;5053089;28;20025;-78
2022/12/21 09:31:15;;;;;;;29.88;11.05;;;7.50;99.90;;;;;;5053440;28;20360;-77
2022/12/21 09:33:41;;;;;;;26.67;11.75;;;7.50;99.90;;;;;;5054593;28;20048;-78
2022/12/21 09:36:09;;;;;;;33.38;11.95;;;8.00;99.90;;;;;;5054407;28;20037;-77
2022/12/21 09:38:34;;;;;;;29.63;12.15;;;7.50;99.90;;;;;;5053255;28;20028;-77
2022/12/21 09:41:04;;;;;;;38.40;13.52;;;7.50;99.90;;;;;;5054608;28;20024;-77
2022/12/21 09:43:37;;;;;;;35.95;14.25;;;7.50;99.90;;;;;;5054296;28;20060;-77
2022/12/21 09:46:12;;;;;;;31.45;12.48;;;7.50;99.90;;;;;;5053393;28;20021;-77
2022/12/21 09:48:40;;;;;;;27.60;12.70;;;7.50;99.90;;;;;;5053152;28;20475;-77
2022/12/21 09:51:10;;;;;;;26.75;12.00;;;7.60;99.90;;;;;;5054544;28;20087;-78
2022/12/21 09:53:48;;;;;;;27.40;11.38;;;7.60;99.90;;;;;;5052969;28;20071;-77
2022/12/21 09:56:21;;;;;;;34.50;12.38;;;7.70;99.90;;;;;;5052971;28;20044;-77
2022/12/21 09:58:48;;;;;;;24.38;10.65;;;7.70;99.90;;;;;;5052711;28;20484;-77
2022/12/21 10:01:25;;;;;;;23.50;9.57;;;7.80;99.90;;;;;;5054095;28;20059;-77
2022/12/21 10:04:09;;;;;;;23.33;8.77;;;7.90;99.90;;;;;;5052693;28;20021;-77
2022/12/21 10:06:37;;;;;;;23.23;9.48;;;7.80;99.90;;;;;;5052612;28;20396;-77
2022/12/21 10:09:40;;;;;;;25.20;8.75;;;7.80;99.90;;;;;;5053737;28;20029;-77
2022/12/21 10:12:22;;;;;;;20.05;7.25;;;7.80;99.90;;;;;;5053866;28;20029;-77
2022/12/21 10:15:23;;;;;;;19.42;7.80;;;7.80;99.90;;;;;;5053711;28;20021;-77
2022/12/21 10:18:00;;;;;;;22.73;8.93;;;7.70;99.90;;;;;;5052549;28;20468;-77
2022/12/21 10:20:52;;;;;;;22.85;7.38;;;7.70;99.90;;;;;;5052704;28;20468;-77
2022/12/21 10:23:32;;;;;;;19.35;6.97;;;7.60;99.90;;;;;;5053494;28;20036;-78
2022/12/21 10:26:02;;;;;;;24.00;8.23;;;7.70;99.90;;;;;;5052226;28;20515;-78
2022/12/21 10:28:27;;;;;;;14.57;6.18;;;7.70;99.90;;;;;;5053583;28;20368;-77
2022/12/21 10:31:05;;;;;;;18.98;7.47;;;7.80;99.90;;;;;;5052799;28;20548;-78
2022/12/21 10:33:33;;;;;;;20.35;7.22;;;7.70;99.90;;;;;;5053476;28;20021;-76
2022/12/21 10:36:02;;;;;;;15.93;7.25;;;7.80;99.90;;;;;;5053205;28;20033;-77
2022/12/21 10:38:32;;;;;;;26.67;7.40;;;7.80;99.90;;;;;;5054411;28;20048;-78
2022/12/21 10:40:58;;;;;;;23.50;8.20;;;7.80;99.90;;;;;;5053888;28;20067;-78
2022/12/21 10:43:25;;;;;;;19.45;7.22;;;8.00;99.90;;;;;;5054058;28;20480;-78
2022/12/21 10:45:54;;;;;;;19.10;7.38;;;6.20;99.90;;;;;;5052209;28;20553;-77
2022/12/21 10:48:20;;;;;;;21.13;7.13;;;8.10;99.90;;;;;;5051954;28;20053;-77
2022/12/21 10:50:49;;;;;;;26.73;8.07;;;8.10;99.90;;;;;;5052169;28;20388;-78
2022/12/21 10:53:26;;;;;;;19.02;6.63;;;8.20;99.90;;;;;;5053444;28;20017;-77
2022/12/21 10:55:54;;;;;;;23.80;7.40;;;8.20;99.90;;;;;;5053592;28;20021;-77
2022/12/21 10:58:33;;;;;;;18.92;7.88;;;8.30;99.90;;;;;;5053399;28;20104;-77
2022/12/21 11:01:00;;;;;;;23.02;8.15;;;8.30;99.90;;;;;;5053267;28;20025;-77
2022/12/21 11:03:34;;;;;;;22.17;9.35;;;8.20;99.90;;;;;;5053078;28;20055;-77
2022/12/21 11:06:16;;;;;;;35.97;11.80;;;8.20;99.90;;;;;;5053294;28;20031;-77
2022/12/21 11:08:52;;;;;;;33.45;13.27;;;8.10;99.90;;;;;;5052948;28;20391;-76
2022/12/21 11:11:38;;;;;;;41.47;13.77;;;8.10;99.90;;;;;;5054139;28;20139;-77
2022/12/21 11:14:16;;;;;;;32.33;11.90;;;8.20;99.90;;;;;;5051896;28;20035;-77
2022/12/21 11:16:44;;;;;;;31.98;13.85;;;8.00;99.90;;;;;;5053868;28;20460;-76
2022/12/21 11:19:16;;;;;;;40.93;14.30;;;7.90;99.90;;;;;;5053355;28;20056;-77
2022/12/21 11:21:54;;;;;;;45.45;15.77;;;7.90;99.90;;;;;;5054619;28;20025;-77
2022/12/21 11:24:21;;;;;;;33.35;14.25;;;7.90;99.90;;;;;;5056083;28;20083;-76
2022/12/21 11:26:51;;;;;;;40.58;14.27;;;8.00;99.90;;;;;;5056842;28;20109;-77
2022/12/21 11:29:57;;;;;;;42.42;15.27;;;7.90;99.90;;;;;;5055222;28;20434;-77
2022/12/21 11:32:24;;;;;;;38.25;14.88;;;7.90;99.90;;;;;;5056610;28;20017;-77
2022/12/21 11:34:55;;;;;;;35.88;14.98;;;7.90;99.90;;;;;;5055278;28;20055;-76
2022/12/21 11:37:35;;;;;;;38.13;15.68;;;8.00;99.90;;;;;;5056896;28;20029;-77
2022/12/21 11:40:10;;;;;;;33.70;13.48;;;8.00;99.90;;;;;;5055120;28;20055;-77
2022/12/21 11:42:52;;;;;;;33.70;13.90;;;7.90;99.90;;;;;;5055166;28;20036;-77
2022/12/21 11:45:39;;;;;;;33.58;13.55;;;8.00;99.90;;;;;;5056346;28;20084;-77
2022/12/21 11:48:19;;;;;;;35.28;13.02;;;8.00;99.90;;;;;;5054909;28;20381;-77
2022/12/21 11:51:03;;;;;;;31.88;11.50;;;8.00;99.90;;;;;;5056231;28;20028;-76
2022/12/21 11:53:41;;;;;;;34.88;11.55;;;8.00;99.90;;;;;;5055189;28;20040;-77
2022/12/21 11:56:44;;;;;;;37.80;12.95;;;7.90;99.90;;;;;;5055445;28;20031;-77
2022/12/21 11:59:27;;;;;;;36.08;11.00;;;7.90;99.90;;;;;;5054872;28;20029;-77
2022/12/21 12:02:14;;;;;;;31.88;12.63;;;7.90;99.90;;;;;;5056154;28;20028;-76
2022/12/21 12:05:17;;;;;;;31.58;11.52;;;7.90;99.90;;;;;;5056134;28;20112;-77
2022/12/21 12:08:00;;;;;;;28.52;12.07;;;8.00;99.90;;;;;;5055861;28;20025;-77
2022/12/21 12:11:00;;;;;;;27.90;10.27;;;7.90;99.90;;;;;;5054519;28;20365;-76
2022/12/21 12:13:37;;;;;;;33.60;11.60;;;8.00;99.90;;;;;;5055724;28;20021;-76
2022/12/21 12:16:28;;;;;;;31.77;11.13;;;7.90;99.90;;;;;;5056241;28;20507;-75
2022/12/21 12:19:14;;;;;;;32.40;10.73;;;7.90;99.90;;;;;;5056060;28;20549;-76
2022/12/21 12:21:54;;;;;;;28.00;10.88;;;8.00;99.90;;;;;;5054718;28;20029;-76
2022/12/21 12:24:41;;;;;;;23.00;9.35;;;8.00;99.90;;;;;;5054556;28;20458;-76
2022/12/21 12:27:16;;;;;;;24.23;9.77;;;8.00;99.90;;;;;;5054221;28;20395;-75
2022/12/21 12:30:17;;;;;;;28.17;10.07;;;8.10;99.90;;;;;;5055223;28;20032;-75
2022/12/21 12:33:28;;;;;;;31.92;9.88;;;8.10;99.90;;;;;;5046934;28;20117;-76
2022/12/21 12:35:59;;;;;;;19.00;7.97;;;8.10;99.90;;;;;;5041779;28;20045;-75
2022/12/21 12:38:46;;;;;;;24.90;7.43;;;8.10;99.90;;;;;;5055018;28;20108;-76
2022/12/21 12:41:35;;;;;;;26.95;7.45;;;8.10;99.90;;;;;;5055187;28;20056;-76
2022/12/21 12:44:03;;;;;;;;;;;8.00;99.90;;;;;;5055687;28;20511;-77
2022/12/21 12:46:53;;;;;;;18.10;7.05;;;8.00;99.90;;;;;;5055735;28;19905;-76
2022/12/21 12:49:51;;;;;;;21.83;8.55;;;8.00;99.90;;;;;;5053741;28;20467;-76
2022/12/21 12:52:50;;;;;;;25.15;9.23;;;8.00;99.90;;;;;;5022210;28;20041;-76
2022/12/21 12:55:30;;;;;;;21.75;8.05;;;8.00;99.90;;;;;;5053733;28;20028;-76
2022/12/21 12:58:11;;;;;;;25.23;10.32;;;8.00;99.90;;;;;;5055079;28;20500;-76
2022/12/21 13:01:14;;;;;;;25.33;11.25;;;8.10;99.90;;;;;;5053566;28;20048;-75
2022/12/21 13:04:07;;;;;;;25.73;9.98;;;8.10;99.90;;;;;;5054965;28;20025;-75
2022/12/21 13:06:51;;;;;;;24.45;10.20;;;8.10;99.90;;;;;;5053929;28;20025;-76
2022/12/21 13:09:32;;;;;;;32.20;10.90;;;8.20;99.90;;;;;;5053320;28;20368;-75
2022/12/21 13:12:06;;;;;;;27.85;11.18;;;8.10;99.90;;;;;;5053419;28;20032;-76
2022/12/21 13:14:59;;;;;;;30.95;11.55;;;8.20;99.90;;;;;;5053339;28;20025;-76
2022/12/21 13:17:51;;;;;;;32.47;12.25;;;8.30;99.90;;;;;;5026689;28;20112;-76
2022/12/21 13:20:20;;;;;;;29.73;10.57;;;8.30;99.90;;;;;;5053227;28;20508;-76
2022/12/21 13:22:53;;;;;;;39.88;12.10;;;8.40;99.90;;;;;;5054491;28;20025;-76
2022/12/21 13:25:49;;;;;;;26.75;10.45;;;8.40;99.90;;;;;;5054483;28;20495;-76
2022/12/21 13:28:30;;;;;;;27.00;11.20;;;8.40;99.90;;;;;;5044610;28;20033;-76